sensor_id;sensor_type;location;lat;lon;timestamp;P1;durP1;ratioP1;P2;durP2;ratioP2
13222;SDS011;6676;45.192;5.722;2023-08-12T00:02:17;2.77;;;1.77;;
13222;SDS011;6676;45.192;5.722;2023-08-12T00:05:09;3.12;;;1.72;;
13222;SDS011;6676;45.192;5.722;2023-08-12T00:08:01;4.05;;;1.80;;
13222;SDS011;6676;45.192;5.722;2023-08-12T00:10:52;2.47;;;1.67;;
13222;SDS011;6676;45.192;5.722;2023-08-12T00:13:44;1.67;;;1.42;;
13222;SDS011;6676;45.192;5.722;2023-08-12T00:16:35;3.45;;;1.57;;
13222;SDS011;6676;45.192;5.722;2023-08-12T00:19:26;3.77;;;1.70;;
13222;SDS011;6676;45.192;5.722;2023-08-12T00:22:17;2.65;;;2.00;;
13222;SDS011;6676;45.192;5.722;2023-08-12T00:25:09;6.20;;;2.00;;
13222;SDS011;6676;45.192;5.722;2023-08-12T00:28:00;2.80;;;1.60;;
13222;SDS011;6676;45.192;5.722;2023-08-12T00:30:52;2.10;;;1.90;;
13222;SDS011;6676;45.192;5.722;2023-08-12T00:36:23;3.08;;;2.00;;
13222;SDS011;6676;45.192;5.722;2023-08-12T00:41:55;3.12;;;1.70;;
13222;SDS011;6676;45.192;5.722;2023-08-12T00:47:29;7.03;;;3.70;;
13222;SDS011;6676;45.192;5.722;2023-08-12T00:50:21;19.77;;;8.43;;
13222;SDS011;6676;45.192;5.722;2023-08-12T00:53:13;16.80;;;7.10;;
13222;SDS011;6676;45.192;5.722;2023-08-12T00:58:49;16.27;;;7.72;;
13222;SDS011;6676;45.192;5.722;2023-08-12T01:01:33;4.45;;;2.25;;
13222;SDS011;6676;45.192;5.722;2023-08-12T01:04:25;17.70;;;9.05;;
13222;SDS011;6676;45.192;5.722;2023-08-12T01:07:16;11.22;;;6.15;;
13222;SDS011;6676;45.192;5.722;2023-08-12T01:10:09;5.70;;;2.47;;
13222;SDS011;6676;45.192;5.722;2023-08-12T01:13:19;3.05;;;1.80;;
13222;SDS011;6676;45.192;5.722;2023-08-12T01:15:59;3.67;;;2.15;;
13222;SDS011;6676;45.192;5.722;2023-08-12T01:18:43;3.65;;;2.35;;
13222;SDS011;6676;45.192;5.722;2023-08-12T01:21:24;4.55;;;2.58;;
13222;SDS011;6676;45.192;5.722;2023-08-12T01:26:58;8.78;;;3.35;;
13222;SDS011;6676;45.192;5.722;2023-08-12T01:32:32;4.20;;;2.00;;
13222;SDS011;6676;45.192;5.722;2023-08-12T01:35:28;4.53;;;1.98;;
13222;SDS011;6676;45.192;5.722;2023-08-12T01:38:21;2.72;;;1.67;;
13222;SDS011;6676;45.192;5.722;2023-08-12T01:41:05;3.15;;;2.00;;
13222;SDS011;6676;45.192;5.722;2023-08-12T01:46:39;3.90;;;1.95;;
13222;SDS011;6676;45.192;5.722;2023-08-12T01:52:14;3.60;;;1.70;;
13222;SDS011;6676;45.192;5.722;2023-08-12T01:55:06;2.25;;;1.60;;
13222;SDS011;6676;45.192;5.722;2023-08-12T02:00:37;2.58;;;1.80;;
13222;SDS011;6676;45.192;5.722;2023-08-12T02:03:16;2.70;;;1.82;;
13222;SDS011;6676;45.192;5.722;2023-08-12T02:06:08;2.02;;;1.60;;
13222;SDS011;6676;45.192;5.722;2023-08-12T02:11:42;1.80;;;1.45;;
13222;SDS011;6676;45.192;5.722;2023-08-12T02:14:33;2.27;;;1.80;;
13222;SDS011;6676;45.192;5.722;2023-08-12T02:17:26;2.37;;;1.62;;
13222;SDS011;6676;45.192;5.722;2023-08-12T02:20:17;2.33;;;1.50;;
13222;SDS011;6676;45.192;5.722;2023-08-12T02:23:08;3.00;;;1.52;;
13222;SDS011;6676;45.192;5.722;2023-08-12T02:25:59;3.55;;;2.40;;
13222;SDS011;6676;45.192;5.722;2023-08-12T02:28:52;6.58;;;2.87;;
13222;SDS011;6676;45.192;5.722;2023-08-12T02:31:43;5.22;;;2.77;;
13222;SDS011;6676;45.192;5.722;2023-08-12T02:34:34;3.92;;;2.08;;
13222;SDS011;6676;45.192;5.722;2023-08-12T02:37:25;2.35;;;1.95;;
13222;SDS011;6676;45.192;5.722;2023-08-12T02:40:17;3.10;;;2.15;;
13222;SDS011;6676;45.192;5.722;2023-08-12T03:10:23;3.22;;;1.62;;
13222;SDS011;6676;45.192;5.722;2023-08-12T03:15:54;3.42;;;1.80;;
13222;SDS011;6676;45.192;5.722;2023-08-12T03:18:34;2.80;;;1.70;;
13222;SDS011;6676;45.192;5.722;2023-08-12T03:21:45;2.27;;;1.80;;
13222;SDS011;6676;45.192;5.722;2023-08-12T03:24:57;1.70;;;1.50;;
13222;SDS011;6676;45.192;5.722;2023-08-12T03:27:37;1.70;;;1.20;;
13222;SDS011;6676;45.192;5.722;2023-08-12T03:33:19;4.28;;;2.02;;
13222;SDS011;6676;45.192;5.722;2023-08-12T03:38:50;4.03;;;1.77;;
13222;SDS011;6676;45.192;5.722;2023-08-12T03:41:43;1.85;;;1.50;;
13222;SDS011;6676;45.192;5.722;2023-08-12T03:44:34;3.47;;;1.75;;
13222;SDS011;6676;45.192;5.722;2023-08-12T03:47:26;2.30;;;1.65;;
13222;SDS011;6676;45.192;5.722;2023-08-12T03:50:18;3.45;;;1.70;;
13222;SDS011;6676;45.192;5.722;2023-08-12T03:53:09;4.15;;;1.65;;
13222;SDS011;6676;45.192;5.722;2023-08-12T03:58:46;3.10;;;1.90;;
13222;SDS011;6676;45.192;5.722;2023-08-12T04:01:26;1.90;;;1.62;;
13222;SDS011;6676;45.192;5.722;2023-08-12T04:04:17;3.45;;;1.60;;
13222;SDS011;6676;45.192;5.722;2023-08-12T04:07:08;2.25;;;1.60;;
13222;SDS011;6676;45.192;5.722;2023-08-12T04:10:00;4.03;;;2.40;;
13222;SDS011;6676;45.192;5.722;2023-08-12T04:12:52;3.85;;;2.20;;
13222;SDS011;6676;45.192;5.722;2023-08-12T04:21:05;2.45;;;1.80;;
13222;SDS011;6676;45.192;5.722;2023-08-12T04:26:36;2.25;;;1.52;;
13222;SDS011;6676;45.192;5.722;2023-08-12T04:29:28;2.72;;;2.05;;
13222;SDS011;6676;45.192;5.722;2023-08-12T04:32:20;3.05;;;1.92;;
13222;SDS011;6676;45.192;5.722;2023-08-12T04:35:11;4.00;;;1.90;;
13222;SDS011;6676;45.192;5.722;2023-08-12T04:38:03;2.20;;;1.95;;
13222;SDS011;6676;45.192;5.722;2023-08-12T04:40:55;3.92;;;2.20;;
13222;SDS011;6676;45.192;5.722;2023-08-12T04:46:26;3.45;;;1.70;;
13222;SDS011;6676;45.192;5.722;2023-08-12T04:49:18;4.08;;;2.35;;
13222;SDS011;6676;45.192;5.722;2023-08-12T04:52:11;3.85;;;2.10;;
13222;SDS011;6676;45.192;5.722;2023-08-12T04:57:46;3.27;;;1.98;;
13222;SDS011;6676;45.192;5.722;2023-08-12T05:00:37;4.67;;;2.47;;
13222;SDS011;6676;45.192;5.722;2023-08-12T05:03:32;4.22;;;1.92;;
13222;SDS011;6676;45.192;5.722;2023-08-12T05:06:23;3.87;;;1.87;;
13222;SDS011;6676;45.192;5.722;2023-08-12T05:09:15;3.60;;;1.87;;
13222;SDS011;6676;45.192;5.722;2023-08-12T05:12:07;4.72;;;1.92;;
13222;SDS011;6676;45.192;5.722;2023-08-12T05:14:59;4.55;;;1.92;;
13222;SDS011;6676;45.192;5.722;2023-08-12T05:17:51;2.87;;;1.95;;
13222;SDS011;6676;45.192;5.722;2023-08-12T05:23:21;2.42;;;1.90;;
13222;SDS011;6676;45.192;5.722;2023-08-12T05:26:13;4.37;;;2.15;;
13222;SDS011;6676;45.192;5.722;2023-08-12T05:29:04;4.55;;;2.00;;
13222;SDS011;6676;45.192;5.722;2023-08-12T05:32:01;3.62;;;2.00;;
13222;SDS011;6676;45.192;5.722;2023-08-12T05:34:55;6.03;;;2.10;;
13222;SDS011;6676;45.192;5.722;2023-08-12T05:37:46;4.30;;;2.60;;
13222;SDS011;6676;45.192;5.722;2023-08-12T05:40:37;4.37;;;2.30;;
13222;SDS011;6676;45.192;5.722;2023-08-12T05:46:12;3.52;;;2.05;;
13222;SDS011;6676;45.192;5.722;2023-08-12T05:52:14;3.83;;;2.22;;
13222;SDS011;6676;45.192;5.722;2023-08-12T05:55:06;4.37;;;2.10;;
13222;SDS011;6676;45.192;5.722;2023-08-12T05:57:58;2.65;;;2.10;;
13222;SDS011;6676;45.192;5.722;2023-08-12T06:00:49;3.00;;;2.30;;
13222;SDS011;6676;45.192;5.722;2023-08-12T06:03:41;3.85;;;2.60;;
13222;SDS011;6676;45.192;5.722;2023-08-12T06:06:32;3.02;;;2.27;;
13222;SDS011;6676;45.192;5.722;2023-08-12T06:09:23;3.22;;;2.10;;
13222;SDS011;6676;45.192;5.722;2023-08-12T06:12:16;2.70;;;2.30;;
13222;SDS011;6676;45.192;5.722;2023-08-12T06:15:08;3.70;;;2.12;;
13222;SDS011;6676;45.192;5.722;2023-08-12T06:18:00;3.50;;;2.10;;
13222;SDS011;6676;45.192;5.722;2023-08-12T06:20:45;3.08;;;2.20;;
13222;SDS011;6676;45.192;5.722;2023-08-12T06:26:15;3.98;;;2.10;;
13222;SDS011;6676;45.192;5.722;2023-08-12T06:29:07;4.10;;;2.52;;
13222;SDS011;6676;45.192;5.722;2023-08-12T06:31:58;3.05;;;2.00;;
13222;SDS011;6676;45.192;5.722;2023-08-12T06:34:50;3.45;;;2.20;;
13222;SDS011;6676;45.192;5.722;2023-08-12T06:37:41;5.50;;;2.47;;
13222;SDS011;6676;45.192;5.722;2023-08-12T06:40:32;2.98;;;2.22;;
13222;SDS011;6676;45.192;5.722;2023-08-12T06:43:24;2.95;;;2.10;;
13222;SDS011;6676;45.192;5.722;2023-08-12T06:46:17;4.30;;;2.12;;
13222;SDS011;6676;45.192;5.722;2023-08-12T06:49:08;4.33;;;2.08;;
13222;SDS011;6676;45.192;5.722;2023-08-12T06:52:00;4.58;;;2.22;;
13222;SDS011;6676;45.192;5.722;2023-08-12T06:54:51;4.85;;;2.12;;
13222;SDS011;6676;45.192;5.722;2023-08-12T06:57:42;2.45;;;2.05;;
13222;SDS011;6676;45.192;5.722;2023-08-12T07:00:33;3.62;;;2.35;;
13222;SDS011;6676;45.192;5.722;2023-08-12T07:03:25;2.25;;;2.05;;
13222;SDS011;6676;45.192;5.722;2023-08-12T07:36:40;4.15;;;2.02;;
13222;SDS011;6676;45.192;5.722;2023-08-12T07:39:32;3.40;;;2.20;;
13222;SDS011;6676;45.192;5.722;2023-08-12T07:42:26;3.92;;;2.15;;
13222;SDS011;6676;45.192;5.722;2023-08-12T07:45:18;3.10;;;2.22;;
13222;SDS011;6676;45.192;5.722;2023-08-12T07:48:09;3.40;;;2.22;;
13222;SDS011;6676;45.192;5.722;2023-08-12T07:51:00;2.65;;;2.00;;
13222;SDS011;6676;45.192;5.722;2023-08-12T07:53:51;3.40;;;2.50;;
13222;SDS011;6676;45.192;5.722;2023-08-12T07:56:43;4.92;;;2.92;;
13222;SDS011;6676;45.192;5.722;2023-08-12T07:59:34;2.87;;;2.50;;
13222;SDS011;6676;45.192;5.722;2023-08-12T08:02:21;3.62;;;2.47;;
13222;SDS011;6676;45.192;5.722;2023-08-12T08:05:12;5.58;;;2.50;;
13222;SDS011;6676;45.192;5.722;2023-08-12T08:08:05;3.52;;;2.25;;
13222;SDS011;6676;45.192;5.722;2023-08-12T08:10:56;4.10;;;2.58;;
13222;SDS011;6676;45.192;5.722;2023-08-12T08:13:48;4.53;;;2.35;;
13222;SDS011;6676;45.192;5.722;2023-08-12T08:16:40;3.72;;;2.40;;
13222;SDS011;6676;45.192;5.722;2023-08-12T08:32:55;3.02;;;2.47;;
13222;SDS011;6676;45.192;5.722;2023-08-12T09:08:03;3.65;;;2.35;;
13222;SDS011;6676;45.192;5.722;2023-08-12T09:10:59;3.62;;;2.30;;
13222;SDS011;6676;45.192;5.722;2023-08-12T09:13:52;3.98;;;2.30;;
13222;SDS011;6676;45.192;5.722;2023-08-12T09:18:09;3.58;;;2.37;;
13222;SDS011;6676;45.192;5.722;2023-08-12T09:21:02;6.83;;;2.33;;
13222;SDS011;6676;45.192;5.722;2023-08-12T09:23:54;2.72;;;1.90;;
13222;SDS011;6676;45.192;5.722;2023-08-12T09:26:46;2.42;;;2.10;;
13222;SDS011;6676;45.192;5.722;2023-08-12T09:29:40;2.90;;;2.30;;
13222;SDS011;6676;45.192;5.722;2023-08-12T09:46:33;4.53;;;2.55;;
13222;SDS011;6676;45.192;5.722;2023-08-12T09:49:24;5.75;;;2.15;;
13222;SDS011;6676;45.192;5.722;2023-08-12T09:52:17;3.65;;;2.08;;
13222;SDS011;6676;45.192;5.722;2023-08-12T09:55:09;3.27;;;1.70;;
13222;SDS011;6676;45.192;5.722;2023-08-12T09:57:54;4.53;;;1.95;;
13222;SDS011;6676;45.192;5.722;2023-08-12T10:03:26;2.62;;;1.60;;
13222;SDS011;6676;45.192;5.722;2023-08-12T10:09:02;4.37;;;2.10;;
13222;SDS011;6676;45.192;5.722;2023-08-12T10:11:45;4.20;;;2.17;;
13222;SDS011;6676;45.192;5.722;2023-08-12T10:17:27;4.70;;;2.27;;
13222;SDS011;6676;45.192;5.722;2023-08-12T10:20:21;4.20;;;2.33;;
13222;SDS011;6676;45.192;5.722;2023-08-12T10:23:16;2.72;;;2.20;;
13222;SDS011;6676;45.192;5.722;2023-08-12T10:26:07;2.75;;;2.15;;
13222;SDS011;6676;45.192;5.722;2023-08-12T10:29:00;4.25;;;2.17;;
13222;SDS011;6676;45.192;5.722;2023-08-12T10:31:52;3.17;;;2.25;;
13222;SDS011;6676;45.192;5.722;2023-08-12T10:37:27;2.45;;;2.02;;
13222;SDS011;6676;45.192;5.722;2023-08-12T10:40:20;2.10;;;1.90;;
13222;SDS011;6676;45.192;5.722;2023-08-12T10:43:12;3.12;;;2.02;;
13222;SDS011;6676;45.192;5.722;2023-08-12T10:48:58;5.08;;;2.50;;
13222;SDS011;6676;45.192;5.722;2023-08-12T10:51:46;2.52;;;1.90;;
13222;SDS011;6676;45.192;5.722;2023-08-12T10:57:37;2.95;;;1.90;;
13222;SDS011;6676;45.192;5.722;2023-08-12T11:00:28;3.30;;;1.92;;
13222;SDS011;6676;45.192;5.722;2023-08-12T11:03:20;2.58;;;1.65;;
13222;SDS011;6676;45.192;5.722;2023-08-12T11:06:12;2.50;;;1.82;;
13222;SDS011;6676;45.192;5.722;2023-08-12T11:09:03;2.12;;;1.72;;
13222;SDS011;6676;45.192;5.722;2023-08-12T11:11:58;2.60;;;2.00;;
13222;SDS011;6676;45.192;5.722;2023-08-12T11:17:35;2.67;;;1.80;;
13222;SDS011;6676;45.192;5.722;2023-08-12T11:20:28;3.58;;;1.80;;
13222;SDS011;6676;45.192;5.722;2023-08-12T11:23:19;3.65;;;1.62;;
13222;SDS011;6676;45.192;5.722;2023-08-12T11:28:50;3.37;;;2.00;;
13222;SDS011;6676;45.192;5.722;2023-08-12T11:31:34;5.40;;;2.25;;
13222;SDS011;6676;45.192;5.722;2023-08-12T11:34:25;1.80;;;1.70;;
13222;SDS011;6676;45.192;5.722;2023-08-12T11:37:17;3.50;;;1.72;;
13222;SDS011;6676;45.192;5.722;2023-08-12T11:40:09;3.60;;;1.80;;
13222;SDS011;6676;45.192;5.722;2023-08-12T11:43:03;4.72;;;1.90;;
13222;SDS011;6676;45.192;5.722;2023-08-12T11:45:56;4.87;;;1.87;;
13222;SDS011;6676;45.192;5.722;2023-08-12T11:48:48;3.92;;;2.05;;
13222;SDS011;6676;45.192;5.722;2023-08-12T11:51:40;6.12;;;1.90;;
13222;SDS011;6676;45.192;5.722;2023-08-12T11:57:12;5.67;;;2.22;;
13222;SDS011;6676;45.192;5.722;2023-08-12T12:00:07;2.92;;;1.85;;
13222;SDS011;6676;45.192;5.722;2023-08-12T12:03:05;3.17;;;1.95;;
13222;SDS011;6676;45.192;5.722;2023-08-12T12:05:57;4.30;;;2.20;;
13222;SDS011;6676;45.192;5.722;2023-08-12T12:08:51;3.27;;;2.05;;
13222;SDS011;6676;45.192;5.722;2023-08-12T12:11:44;2.50;;;1.85;;
13222;SDS011;6676;45.192;5.722;2023-08-12T12:14:36;3.10;;;2.05;;
13222;SDS011;6676;45.192;5.722;2023-08-12T12:17:27;4.15;;;2.17;;
13222;SDS011;6676;45.192;5.722;2023-08-12T12:36:14;2.72;;;2.08;;
13222;SDS011;6676;45.192;5.722;2023-08-12T12:39:05;4.12;;;1.92;;
13222;SDS011;6676;45.192;5.722;2023-08-12T12:41:56;5.25;;;2.00;;
13222;SDS011;6676;45.192;5.722;2023-08-12T12:44:48;2.90;;;2.27;;
13222;SDS011;6676;45.192;5.722;2023-08-12T12:47:39;3.08;;;1.95;;
13222;SDS011;6676;45.192;5.722;2023-08-12T12:50:31;3.65;;;1.77;;
13222;SDS011;6676;45.192;5.722;2023-08-12T12:53:23;4.00;;;2.17;;
13222;SDS011;6676;45.192;5.722;2023-08-12T12:56:15;2.95;;;1.80;;
13222;SDS011;6676;45.192;5.722;2023-08-12T12:59:06;4.90;;;1.92;;
13222;SDS011;6676;45.192;5.722;2023-08-12T13:02:53;3.22;;;1.92;;
13222;SDS011;6676;45.192;5.722;2023-08-12T13:05:44;5.60;;;2.47;;
13222;SDS011;6676;45.192;5.722;2023-08-12T13:08:36;2.12;;;1.90;;
13222;SDS011;6676;45.192;5.722;2023-08-12T13:11:16;3.70;;;1.95;;
13222;SDS011;6676;45.192;5.722;2023-08-12T13:14:08;4.08;;;2.02;;
13222;SDS011;6676;45.192;5.722;2023-08-12T13:17:00;2.77;;;1.92;;
13222;SDS011;6676;45.192;5.722;2023-08-12T13:19:53;4.12;;;2.05;;
13222;SDS011;6676;45.192;5.722;2023-08-12T13:22:44;2.90;;;2.02;;
13222;SDS011;6676;45.192;5.722;2023-08-12T13:25:35;3.22;;;2.17;;
13222;SDS011;6676;45.192;5.722;2023-08-12T13:28:27;4.42;;;2.12;;
13222;SDS011;6676;45.192;5.722;2023-08-12T13:31:18;5.00;;;1.90;;
13222;SDS011;6676;45.192;5.722;2023-08-12T13:36:56;3.35;;;2.00;;
13222;SDS011;6676;45.192;5.722;2023-08-12T13:39:49;3.90;;;1.80;;
13222;SDS011;6676;45.192;5.722;2023-08-12T13:42:40;3.67;;;1.80;;
13222;SDS011;6676;45.192;5.722;2023-08-12T13:45:24;4.60;;;1.87;;
13222;SDS011;6676;45.192;5.722;2023-08-12T13:48:16;4.35;;;2.08;;
13222;SDS011;6676;45.192;5.722;2023-08-12T13:51:07;3.77;;;1.95;;
13222;SDS011;6676;45.192;5.722;2023-08-12T13:53:59;2.15;;;1.80;;
13222;SDS011;6676;45.192;5.722;2023-08-12T13:56:50;5.33;;;2.50;;
13222;SDS011;6676;45.192;5.722;2023-08-12T13:59:42;3.50;;;1.98;;
13222;SDS011;6676;45.192;5.722;2023-08-12T14:02:34;3.25;;;1.80;;
13222;SDS011;6676;45.192;5.722;2023-08-12T14:05:26;4.20;;;2.02;;
13222;SDS011;6676;45.192;5.722;2023-08-12T14:08:18;5.78;;;2.17;;
13222;SDS011;6676;45.192;5.722;2023-08-12T14:11:10;5.22;;;1.87;;
13222;SDS011;6676;45.192;5.722;2023-08-12T14:14:01;2.87;;;1.90;;
13222;SDS011;6676;45.192;5.722;2023-08-12T14:16:53;5.95;;;2.47;;
13222;SDS011;6676;45.192;5.722;2023-08-12T14:19:44;4.87;;;2.30;;
13222;SDS011;6676;45.192;5.722;2023-08-12T14:22:33;3.45;;;1.80;;
13222;SDS011;6676;45.192;5.722;2023-08-12T14:25:25;2.77;;;1.90;;
13222;SDS011;6676;45.192;5.722;2023-08-12T14:28:16;2.30;;;1.60;;
13222;SDS011;6676;45.192;5.722;2023-08-12T14:31:08;2.50;;;1.60;;
13222;SDS011;6676;45.192;5.722;2023-08-12T14:33:59;3.95;;;2.08;;
13222;SDS011;6676;45.192;5.722;2023-08-12T14:36:52;3.80;;;1.80;;
13222;SDS011;6676;45.192;5.722;2023-08-12T14:39:44;2.22;;;1.60;;
13222;SDS011;6676;45.192;5.722;2023-08-12T14:58:23;3.20;;;1.90;;
13222;SDS011;6676;45.192;5.722;2023-08-12T15:01:15;2.95;;;1.90;;
13222;SDS011;6676;45.192;5.722;2023-08-12T15:04:06;3.77;;;2.00;;
13222;SDS011;6676;45.192;5.722;2023-08-12T15:06:58;5.90;;;1.90;;
13222;SDS011;6676;45.192;5.722;2023-08-12T15:12:39;2.75;;;2.20;;
13222;SDS011;6676;45.192;5.722;2023-08-12T15:18:50;3.70;;;1.82;;
13222;SDS011;6676;45.192;5.722;2023-08-12T15:21:41;3.12;;;1.90;;
13222;SDS011;6676;45.192;5.722;2023-08-12T15:24:32;3.67;;;2.00;;
13222;SDS011;6676;45.192;5.722;2023-08-12T15:27:24;3.83;;;1.90;;
13222;SDS011;6676;45.192;5.722;2023-08-12T15:30:15;2.80;;;1.85;;
13222;SDS011;6676;45.192;5.722;2023-08-12T15:33:06;4.45;;;2.00;;
13222;SDS011;6676;45.192;5.722;2023-08-12T15:35:58;3.10;;;1.80;;
13222;SDS011;6676;45.192;5.722;2023-08-12T15:38:41;3.47;;;2.00;;
13222;SDS011;6676;45.192;5.722;2023-08-12T15:41:32;2.92;;;2.00;;
13222;SDS011;6676;45.192;5.722;2023-08-12T15:47:04;4.37;;;2.20;;
13222;SDS011;6676;45.192;5.722;2023-08-12T15:50:00;3.75;;;1.85;;
13222;SDS011;6676;45.192;5.722;2023-08-12T15:52:52;2.05;;;1.82;;
13222;SDS011;6676;45.192;5.722;2023-08-12T15:55:43;4.92;;;1.87;;
13222;SDS011;6676;45.192;5.722;2023-08-12T15:58:34;3.87;;;2.15;;
13222;SDS011;6676;45.192;5.722;2023-08-12T16:01:27;3.22;;;1.90;;
13222;SDS011;6676;45.192;5.722;2023-08-12T16:07:12;3.98;;;2.30;;
13222;SDS011;6676;45.192;5.722;2023-08-12T16:10:06;5.12;;;2.00;;
13222;SDS011;6676;45.192;5.722;2023-08-12T16:12:57;3.98;;;2.10;;
13222;SDS011;6676;45.192;5.722;2023-08-12T16:15:38;5.90;;;3.22;;
13222;SDS011;6676;45.192;5.722;2023-08-12T16:18:30;4.05;;;2.50;;
13222;SDS011;6676;45.192;5.722;2023-08-12T16:21:21;4.53;;;1.92;;
13222;SDS011;6676;45.192;5.722;2023-08-12T16:24:12;4.78;;;2.08;;
13222;SDS011;6676;45.192;5.722;2023-08-12T16:27:04;3.75;;;1.85;;
13222;SDS011;6676;45.192;5.722;2023-08-12T16:32:37;2.35;;;1.90;;
13222;SDS011;6676;45.192;5.722;2023-08-12T16:35:28;6.47;;;2.00;;
13222;SDS011;6676;45.192;5.722;2023-08-12T16:38:19;3.25;;;2.20;;
13222;SDS011;6676;45.192;5.722;2023-08-12T16:43:55;4.05;;;1.98;;
13222;SDS011;6676;45.192;5.722;2023-08-12T16:46:47;3.17;;;1.80;;
13222;SDS011;6676;45.192;5.722;2023-08-12T16:49:38;3.87;;;2.30;;
13222;SDS011;6676;45.192;5.722;2023-08-12T16:52:30;2.55;;;2.35;;
13222;SDS011;6676;45.192;5.722;2023-08-12T16:58:07;4.08;;;2.17;;
13222;SDS011;6676;45.192;5.722;2023-08-12T17:00:59;4.22;;;1.72;;
13222;SDS011;6676;45.192;5.722;2023-08-12T17:03:50;4.03;;;2.30;;
13222;SDS011;6676;45.192;5.722;2023-08-12T17:06:42;3.20;;;1.92;;
13222;SDS011;6676;45.192;5.722;2023-08-12T17:12:16;3.50;;;1.90;;
13222;SDS011;6676;45.192;5.722;2023-08-12T17:18:23;3.17;;;1.80;;
13222;SDS011;6676;45.192;5.722;2023-08-12T17:21:14;4.83;;;2.15;;
13222;SDS011;6676;45.192;5.722;2023-08-12T17:27:22;4.22;;;2.37;;
13222;SDS011;6676;45.192;5.722;2023-08-12T17:30:14;4.25;;;2.05;;
13222;SDS011;6676;45.192;5.722;2023-08-12T17:33:05;2.87;;;2.10;;
13222;SDS011;6676;45.192;5.722;2023-08-12T17:35:56;2.83;;;2.02;;
13222;SDS011;6676;45.192;5.722;2023-08-12T17:38:48;4.92;;;2.12;;
13222;SDS011;6676;45.192;5.722;2023-08-12T17:55:07;4.15;;;2.35;;
13222;SDS011;6676;45.192;5.722;2023-08-12T17:57:54;4.35;;;2.92;;
13222;SDS011;6676;45.192;5.722;2023-08-12T18:18:37;6.37;;;3.77;;
13222;SDS011;6676;45.192;5.722;2023-08-12T18:21:28;5.70;;;4.00;;
13222;SDS011;6676;45.192;5.722;2023-08-12T18:43:08;6.50;;;3.42;;
13222;SDS011;6676;45.192;5.722;2023-08-12T18:45:59;6.50;;;4.72;;
13222;SDS011;6676;45.192;5.722;2023-08-12T18:48:50;15.83;;;8.28;;
13222;SDS011;6676;45.192;5.722;2023-08-12T18:51:42;10.38;;;4.60;;
13222;SDS011;6676;45.192;5.722;2023-08-12T18:54:33;5.92;;;3.35;;
13222;SDS011;6676;45.192;5.722;2023-08-12T18:57:25;5.17;;;2.67;;
13222;SDS011;6676;45.192;5.722;2023-08-12T19:00:18;2.80;;;2.45;;
13222;SDS011;6676;45.192;5.722;2023-08-12T19:05:56;6.40;;;2.95;;
13222;SDS011;6676;45.192;5.722;2023-08-12T19:08:48;4.42;;;3.17;;
13222;SDS011;6676;45.192;5.722;2023-08-12T19:11:39;7.08;;;4.83;;
13222;SDS011;6676;45.192;5.722;2023-08-12T19:14:31;9.43;;;5.75;;
13222;SDS011;6676;45.192;5.722;2023-08-12T19:17:22;4.55;;;2.80;;
13222;SDS011;6676;45.192;5.722;2023-08-12T19:20:15;5.33;;;3.83;;
13222;SDS011;6676;45.192;5.722;2023-08-12T19:23:06;5.72;;;3.83;;
13222;SDS011;6676;45.192;5.722;2023-08-12T19:25:58;4.35;;;2.00;;
13222;SDS011;6676;45.192;5.722;2023-08-12T19:28:49;3.90;;;2.25;;
13222;SDS011;6676;45.192;5.722;2023-08-12T19:31:42;5.00;;;2.52;;
13222;SDS011;6676;45.192;5.722;2023-08-12T19:34:34;5.50;;;2.80;;
13222;SDS011;6676;45.192;5.722;2023-08-12T19:37:25;7.17;;;3.83;;
13222;SDS011;6676;45.192;5.722;2023-08-12T19:40:16;4.78;;;2.80;;
13222;SDS011;6676;45.192;5.722;2023-08-12T19:47:38;3.77;;;2.50;;
13222;SDS011;6676;45.192;5.722;2023-08-12T19:50:33;5.20;;;3.00;;
13222;SDS011;6676;45.192;5.722;2023-08-12T19:53:25;4.05;;;2.15;;
13222;SDS011;6676;45.192;5.722;2023-08-12T19:56:24;4.37;;;2.60;;
13222;SDS011;6676;45.192;5.722;2023-08-12T19:59:16;6.20;;;2.47;;
13222;SDS011;6676;45.192;5.722;2023-08-12T20:02:09;5.58;;;3.50;;
13222;SDS011;6676;45.192;5.722;2023-08-12T20:05:10;4.37;;;2.52;;
13222;SDS011;6676;45.192;5.722;2023-08-12T20:08:07;4.33;;;2.80;;
13222;SDS011;6676;45.192;5.722;2023-08-12T20:11:02;5.87;;;3.40;;
13222;SDS011;6676;45.192;5.722;2023-08-12T20:13:53;5.33;;;3.30;;
13222;SDS011;6676;45.192;5.722;2023-08-12T20:16:48;6.17;;;3.80;;
13222;SDS011;6676;45.192;5.722;2023-08-12T20:19:42;5.60;;;4.33;;
13222;SDS011;6676;45.192;5.722;2023-08-12T20:22:36;6.00;;;4.45;;
13222;SDS011;6676;45.192;5.722;2023-08-12T20:25:29;6.70;;;4.58;;
13222;SDS011;6676;45.192;5.722;2023-08-12T20:28:25;8.30;;;4.75;;
13222;SDS011;6676;45.192;5.722;2023-08-12T20:31:25;6.62;;;4.65;;
13222;SDS011;6676;45.192;5.722;2023-08-12T20:52:26;4.70;;;3.02;;
13222;SDS011;6676;45.192;5.722;2023-08-12T20:55:25;5.12;;;2.83;;
13222;SDS011;6676;45.192;5.722;2023-08-12T20:58:16;5.47;;;2.90;;
13222;SDS011;6676;45.192;5.722;2023-08-12T21:01:08;3.65;;;2.62;;
13222;SDS011;6676;45.192;5.722;2023-08-12T21:04:05;3.87;;;3.10;;
13222;SDS011;6676;45.192;5.722;2023-08-12T21:07:00;6.70;;;3.90;;
13222;SDS011;6676;45.192;5.722;2023-08-12T21:09:55;4.42;;;2.80;;
13222;SDS011;6676;45.192;5.722;2023-08-12T21:12:40;6.35;;;3.30;;
13222;SDS011;6676;45.192;5.722;2023-08-12T21:18:12;8.25;;;4.35;;
13222;SDS011;6676;45.192;5.722;2023-08-12T21:40:14;4.72;;;3.25;;
13222;SDS011;6676;45.192;5.722;2023-08-12T21:43:07;6.78;;;3.95;;
13222;SDS011;6676;45.192;5.722;2023-08-12T21:45:58;5.70;;;3.58;;
13222;SDS011;6676;45.192;5.722;2023-08-12T21:48:49;4.67;;;4.12;;
13222;SDS011;6676;45.192;5.722;2023-08-12T21:51:41;5.03;;;3.27;;
13222;SDS011;6676;45.192;5.722;2023-08-12T21:57:14;5.17;;;3.08;;
13222;SDS011;6676;45.192;5.722;2023-08-12T22:00:07;8.40;;;3.20;;
13222;SDS011;6676;45.192;5.722;2023-08-12T22:03:02;4.12;;;3.67;;
13222;SDS011;6676;45.192;5.722;2023-08-12T22:05:53;5.90;;;3.42;;
13222;SDS011;6676;45.192;5.722;2023-08-12T22:08:44;6.50;;;3.50;;
13222;SDS011;6676;45.192;5.722;2023-08-12T22:11:36;5.03;;;3.62;;
13222;SDS011;6676;45.192;5.722;2023-08-12T22:18:11;6.00;;;3.30;;
13222;SDS011;6676;45.192;5.722;2023-08-12T22:21:02;7.80;;;5.37;;
13222;SDS011;6676;45.192;5.722;2023-08-12T22:23:53;4.12;;;3.33;;
13222;SDS011;6676;45.192;5.722;2023-08-12T22:26:45;4.58;;;3.20;;
13222;SDS011;6676;45.192;5.722;2023-08-12T22:29:37;5.35;;;3.20;;
13222;SDS011;6676;45.192;5.722;2023-08-12T22:32:30;4.80;;;3.08;;
13222;SDS011;6676;45.192;5.722;2023-08-12T22:35:22;5.45;;;3.62;;
13222;SDS011;6676;45.192;5.722;2023-08-12T22:38:14;10.35;;;5.95;;
13222;SDS011;6676;45.192;5.722;2023-08-12T22:41:05;18.07;;;7.97;;
13222;SDS011;6676;45.192;5.722;2023-08-12T22:43:56;11.20;;;5.95;;
13222;SDS011;6676;45.192;5.722;2023-08-12T22:46:48;11.95;;;5.95;;
13222;SDS011;6676;45.192;5.722;2023-08-12T22:49:40;6.78;;;4.30;;
13222;SDS011;6676;45.192;5.722;2023-08-12T22:52:32;6.10;;;4.22;;
13222;SDS011;6676;45.192;5.722;2023-08-12T22:55:23;8.68;;;4.78;;
13222;SDS011;6676;45.192;5.722;2023-08-12T22:58:17;13.50;;;7.55;;
13222;SDS011;6676;45.192;5.722;2023-08-12T23:01:08;9.08;;;4.75;;
13222;SDS011;6676;45.192;5.722;2023-08-12T23:03:59;9.23;;;4.67;;
13222;SDS011;6676;45.192;5.722;2023-08-12T23:06:51;10.18;;;5.40;;
13222;SDS011;6676;45.192;5.722;2023-08-12T23:09:43;8.23;;;4.22;;
13222;SDS011;6676;45.192;5.722;2023-08-12T23:12:35;9.40;;;4.90;;
13222;SDS011;6676;45.192;5.722;2023-08-12T23:15:26;5.60;;;3.50;;
13222;SDS011;6676;45.192;5.722;2023-08-12T23:18:18;4.97;;;3.12;;
13222;SDS011;6676;45.192;5.722;2023-08-12T23:21:10;7.03;;;3.05;;
13222;SDS011;6676;45.192;5.722;2023-08-12T23:24:02;5.87;;;2.95;;
13222;SDS011;6676;45.192;5.722;2023-08-12T23:26:54;6.78;;;3.27;;
13222;SDS011;6676;45.192;5.722;2023-08-12T23:29:45;5.78;;;3.22;;
13222;SDS011;6676;45.192;5.722;2023-08-12T23:32:37;6.03;;;3.00;;
13222;SDS011;6676;45.192;5.722;2023-08-12T23:35:28;5.53;;;2.75;;
13222;SDS011;6676;45.192;5.722;2023-08-12T23:38:20;4.33;;;2.60;;
13222;SDS011;6676;45.192;5.722;2023-08-12T23:41:12;6.85;;;2.80;;
13222;SDS011;6676;45.192;5.722;2023-08-12T23:44:04;3.83;;;2.60;;